VIR628 EHAM-EDDS
Flight info
| Callsign | VIR628 |
|---|---|
| Flight time | 0h 57m |
| Altitude | 35000 |
| Route | EDUPO Z739 MISGO DCT TIVUN DCT DODEN DCT FFM DCT UBENO N850 KRH T128 BADSO BADSO2A |
| Aircraft | A339/H-SADE1E2E3GHIJ3J5M1P2RWXY/LB2D1 |
Departure
| Time | 2026-05-07 14:19 |
|---|---|
| Airport | Amsterdam Airport Schiphol (EHAM) |
Arrival
| Time | 2026-05-07 15:16 |
|---|---|
| Airport | Stuttgart Airport (EDDS) |
| Time | Latitude | Longitude | Altitude | Speed | Heading |
|---|---|---|---|---|---|
| 2026-05-07 13:47 | 52.31223 | 4.76857 | 3 ft | 0 kts | 302° |
| 2026-05-07 14:09 | 52.31218 | 4.76874 | 4 ft | 2 kts | 310° |
| 2026-05-07 14:09 | 52.31198 | 4.76884 | 7 ft | 2 kts | 219° |
| 2026-05-07 14:09 | 52.31212 | 4.76900 | 4 ft | 2 kts | 307° |
| 2026-05-07 14:10 | 52.31201 | 4.76920 | 7 ft | 2 kts | 308° |
| 2026-05-07 14:10 | 52.31191 | 4.76942 | 6 ft | 2 kts | 339° |
| 2026-05-07 14:10 | 52.31176 | 4.76954 | 5 ft | 2 kts | 4° |
| 2026-05-07 14:10 | 52.31164 | 4.76953 | 6 ft | 2 kts | 32° |
| 2026-05-07 14:11 | 52.31176 | 4.76966 | 4 ft | 2 kts | 32° |
| 2026-05-07 14:11 | 52.31179 | 4.76969 | 4 ft | 0 kts | 32° |
| 2026-05-07 14:13 | 52.31185 | 4.76975 | 4 ft | 4 kts | 32° |
| 2026-05-07 14:13 | 52.31233 | 4.77026 | 3 ft | 10 kts | 33° |
| 2026-05-07 14:13 | 52.31299 | 4.77096 | 1 ft | 13 kts | 33° |
| 2026-05-07 14:13 | 52.31378 | 4.77175 | 1 ft | 14 kts | 24° |
| 2026-05-07 14:14 | 52.31476 | 4.77200 | -1 ft | 15 kts | 4° |
| 2026-05-07 14:14 | 52.31566 | 4.77162 | -2 ft | 12 kts | 313° |
| 2026-05-07 14:14 | 52.31567 | 4.77049 | -1 ft | 10 kts | 266° |
| 2026-05-07 14:14 | 52.31562 | 4.76941 | 0 ft | 10 kts | 266° |
| 2026-05-07 14:15 | 52.31558 | 4.76823 | 0 ft | 11 kts | 266° |
| 2026-05-07 14:15 | 52.31555 | 4.76692 | 1 ft | 12 kts | 269° |
| 2026-05-07 14:15 | 52.31553 | 4.76567 | 5 ft | 12 kts | 267° |
| 2026-05-07 14:15 | 52.31545 | 4.76381 | 7 ft | 22 kts | 265° |
| 2026-05-07 14:16 | 52.31531 | 4.76073 | 7 ft | 29 kts | 266° |
| 2026-05-07 14:16 | 52.31522 | 4.75748 | 1 ft | 30 kts | 268° |
| 2026-05-07 14:16 | 52.31508 | 4.75447 | 1 ft | 26 kts | 265° |
| 2026-05-07 14:16 | 52.31500 | 4.75149 | 0 ft | 26 kts | 268° |
| 2026-05-07 14:17 | 52.31494 | 4.74869 | 3 ft | 24 kts | 265° |
| 2026-05-07 14:17 | 52.31508 | 4.74681 | 4 ft | 11 kts | 312° |
| 2026-05-07 14:17 | 52.31569 | 4.74658 | 5 ft | 9 kts | 355° |
| 2026-05-07 14:17 | 52.31632 | 4.74673 | 6 ft | 9 kts | 18° |
| 2026-05-07 14:18 | 52.31664 | 4.74760 | 5 ft | 14 kts | 75° |
| 2026-05-07 14:18 | 52.31685 | 4.75106 | 1 ft | 60 kts | 86° |
| 2026-05-07 14:18 | 52.31724 | 4.76285 | 5 ft | 144 kts | 87° |
| 2026-05-07 14:18 | 52.31775 | 4.78229 | 275 ft | 184 kts | 86° |
| 2026-05-07 14:19 | 52.31816 | 4.80307 | 1086 ft | 188 kts | 84° |
| 2026-05-07 14:19 | 52.31942 | 4.82461 | 1924 ft | 191 kts | 82° |
| 2026-05-07 14:19 | 52.32043 | 4.84716 | 2619 ft | 206 kts | 86° |
| 2026-05-07 14:19 | 52.31917 | 4.87145 | 3176 ft | 227 kts | 100° |
| 2026-05-07 14:20 | 52.31379 | 4.89695 | 3669 ft | 247 kts | 114° |
| 2026-05-07 14:20 | 52.30635 | 4.92332 | 4156 ft | 260 kts | 114° |
| 2026-05-07 14:20 | 52.29892 | 4.95012 | 4923 ft | 262 kts | 114° |
| 2026-05-07 14:20 | 52.29243 | 4.97837 | 5661 ft | 266 kts | 106° |
| 2026-05-07 14:21 | 52.28737 | 5.00772 | 6188 ft | 270 kts | 105° |
| 2026-05-07 14:21 | 52.28243 | 5.03700 | 6955 ft | 271 kts | 106° |
| 2026-05-07 14:21 | 52.27733 | 5.06702 | 7613 ft | 275 kts | 106° |
| 2026-05-07 14:21 | 52.27203 | 5.09744 | 8306 ft | 280 kts | 107° |
| 2026-05-07 14:22 | 52.26672 | 5.12799 | 9008 ft | 284 kts | 107° |
| 2026-05-07 14:22 | 52.26126 | 5.15938 | 9710 ft | 289 kts | 107° |
| 2026-05-07 14:22 | 52.25569 | 5.19132 | 10348 ft | 296 kts | 107° |
| 2026-05-07 14:22 | 52.24975 | 5.22479 | 10561 ft | 316 kts | 108° |
| 2026-05-07 14:23 | 52.24150 | 5.25883 | 10763 ft | 335 kts | 117° |
| 2026-05-07 14:23 | 52.22943 | 5.29200 | 11254 ft | 341 kts | 126° |
| 2026-05-07 14:23 | 52.21536 | 5.32352 | 11896 ft | 344 kts | 127° |
| 2026-05-07 14:23 | 52.20147 | 5.35510 | 12525 ft | 347 kts | 126° |
| 2026-05-07 14:24 | 52.18729 | 5.38759 | 13150 ft | 351 kts | 126° |
| 2026-05-07 14:24 | 52.17325 | 5.41989 | 13773 ft | 355 kts | 126° |
| 2026-05-07 14:24 | 52.15887 | 5.45293 | 14353 ft | 358 kts | 126° |
| 2026-05-07 14:24 | 52.14436 | 5.48622 | 14904 ft | 362 kts | 126° |
| 2026-05-07 14:25 | 52.12965 | 5.51992 | 15469 ft | 365 kts | 126° |
| 2026-05-07 14:25 | 52.11504 | 5.55330 | 16027 ft | 368 kts | 126° |
| 2026-05-07 14:25 | 52.10010 | 5.58742 | 16586 ft | 371 kts | 126° |
| 2026-05-07 14:25 | 52.08498 | 5.62189 | 17145 ft | 374 kts | 126° |
| 2026-05-07 14:26 | 52.06994 | 5.65612 | 17669 ft | 377 kts | 126° |
| 2026-05-07 14:26 | 52.05385 | 5.69027 | 18224 ft | 380 kts | 131° |
| 2026-05-07 14:26 | 52.03631 | 5.72278 | 18732 ft | 382 kts | 132° |
| 2026-05-07 14:26 | 52.01891 | 5.75506 | 19244 ft | 385 kts | 132° |
| 2026-05-07 14:27 | 52.00115 | 5.78807 | 19750 ft | 387 kts | 132° |
| 2026-05-07 14:27 | 51.98350 | 5.82090 | 20246 ft | 390 kts | 133° |
| 2026-05-07 14:27 | 51.96557 | 5.85421 | 20747 ft | 393 kts | 132° |
| 2026-05-07 14:27 | 51.94756 | 5.88784 | 21253 ft | 396 kts | 132° |
| 2026-05-07 14:28 | 51.92944 | 5.92173 | 21767 ft | 398 kts | 132° |
| 2026-05-07 14:28 | 51.91138 | 5.95547 | 22265 ft | 401 kts | 132° |
| 2026-05-07 14:28 | 51.89290 | 5.98988 | 22760 ft | 404 kts | 132° |
| 2026-05-07 14:28 | 51.87433 | 6.02441 | 23295 ft | 407 kts | 132° |
| 2026-05-07 14:29 | 51.85585 | 6.05872 | 23764 ft | 410 kts | 132° |
| 2026-05-07 14:29 | 51.83702 | 6.09352 | 24186 ft | 412 kts | 133° |
| 2026-05-07 14:29 | 51.81790 | 6.12865 | 24620 ft | 415 kts | 133° |
| 2026-05-07 14:29 | 51.79896 | 6.16334 | 25072 ft | 417 kts | 133° |
| 2026-05-07 14:30 | 51.77964 | 6.19869 | 25488 ft | 420 kts | 133° |
| 2026-05-07 14:30 | 51.76018 | 6.23429 | 25902 ft | 422 kts | 133° |
| 2026-05-07 14:30 | 51.74055 | 6.27011 | 26342 ft | 425 kts | 133° |
| 2026-05-07 14:30 | 51.72105 | 6.30566 | 26758 ft | 428 kts | 133° |
| 2026-05-07 14:31 | 51.70118 | 6.34182 | 27163 ft | 430 kts | 133° |
| 2026-05-07 14:31 | 51.68144 | 6.37769 | 27555 ft | 433 kts | 133° |
| 2026-05-07 14:31 | 51.66128 | 6.41429 | 27964 ft | 436 kts | 133° |
| 2026-05-07 14:31 | 51.64099 | 6.45107 | 28357 ft | 438 kts | 133° |
| 2026-05-07 14:32 | 51.62080 | 6.48761 | 28740 ft | 441 kts | 133° |
| 2026-05-07 14:32 | 51.60023 | 6.52482 | 29126 ft | 444 kts | 133° |
| 2026-05-07 14:32 | 51.57986 | 6.56161 | 29492 ft | 447 kts | 133° |
| 2026-05-07 14:32 | 51.55903 | 6.59918 | 29845 ft | 449 kts | 133° |
| 2026-05-07 14:33 | 51.53814 | 6.63680 | 30213 ft | 452 kts | 133° |
| 2026-05-07 14:33 | 51.51701 | 6.67474 | 30523 ft | 455 kts | 133° |
| 2026-05-07 14:33 | 51.49608 | 6.71233 | 30845 ft | 458 kts | 133° |
| 2026-05-07 14:33 | 51.47468 | 6.75070 | 31177 ft | 460 kts | 133° |
| 2026-05-07 14:34 | 51.45338 | 6.78883 | 31484 ft | 463 kts | 133° |
| 2026-05-07 14:34 | 51.43169 | 6.82760 | 31803 ft | 465 kts | 133° |
| 2026-05-07 14:34 | 51.41006 | 6.86646 | 32104 ft | 468 kts | 131° |
| 2026-05-07 14:34 | 51.39033 | 6.90843 | 32396 ft | 471 kts | 124° |
| 2026-05-07 14:35 | 51.37214 | 6.95165 | 32671 ft | 474 kts | 124° |
| 2026-05-07 14:35 | 51.35361 | 6.99548 | 32920 ft | 476 kts | 124° |
| 2026-05-07 14:35 | 51.33489 | 7.03952 | 33145 ft | 477 kts | 124° |
| 2026-05-07 14:35 | 51.31631 | 7.08303 | 33328 ft | 479 kts | 124° |
| 2026-05-07 14:36 | 51.29741 | 7.12712 | 33516 ft | 481 kts | 125° |
| 2026-05-07 14:36 | 51.28486 | 7.15634 | 33663 ft | 481 kts | 124° |
| 2026-05-07 14:36 | 51.26581 | 7.20062 | 33889 ft | 481 kts | 124° |
| 2026-05-07 14:36 | 51.24670 | 7.24497 | 34090 ft | 481 kts | 124° |
| 2026-05-07 14:37 | 51.22787 | 7.28861 | 34275 ft | 481 kts | 124° |
| 2026-05-07 14:37 | 51.18994 | 7.37630 | 34656 ft | 481 kts | 125° |
| 2026-05-07 14:37 | 51.17084 | 7.42033 | 34826 ft | 482 kts | 125° |
| 2026-05-07 14:38 | 51.15169 | 7.46441 | 35001 ft | 482 kts | 125° |
| 2026-05-07 14:38 | 51.13283 | 7.50777 | 35053 ft | 481 kts | 125° |
| 2026-05-07 14:38 | 51.09455 | 7.59551 | 35039 ft | 481 kts | 125° |
| 2026-05-07 14:39 | 51.05644 | 7.68258 | 35048 ft | 480 kts | 125° |
| 2026-05-07 14:39 | 51.01831 | 7.76941 | 35049 ft | 481 kts | 125° |
| 2026-05-07 14:40 | 50.97985 | 7.85669 | 35044 ft | 481 kts | 125° |
| 2026-05-07 14:40 | 50.93803 | 7.93885 | 35021 ft | 480 kts | 139° |
| 2026-05-07 14:41 | 50.91155 | 7.97000 | 35016 ft | 479 kts | 150° |
| 2026-05-07 14:41 | 50.88159 | 7.99300 | 35029 ft | 477 kts | 161° |
| 2026-05-07 14:41 | 50.81737 | 8.01775 | 35027 ft | 476 kts | 169° |
| 2026-05-07 14:42 | 50.75235 | 8.04040 | 35026 ft | 477 kts | 168° |
| 2026-05-07 14:42 | 50.68761 | 8.06319 | 35026 ft | 476 kts | 168° |
| 2026-05-07 14:43 | 50.62301 | 8.08607 | 35025 ft | 476 kts | 167° |
| 2026-05-07 14:43 | 50.56075 | 8.12134 | 35029 ft | 478 kts | 156° |
| 2026-05-07 14:44 | 50.49997 | 8.16470 | 35035 ft | 478 kts | 156° |
| 2026-05-07 14:44 | 50.43932 | 8.20735 | 35043 ft | 478 kts | 157° |
| 2026-05-07 14:45 | 50.37873 | 8.24961 | 35050 ft | 478 kts | 157° |
| 2026-05-07 14:45 | 50.31806 | 8.29180 | 35050 ft | 478 kts | 157° |
| 2026-05-07 14:46 | 50.25723 | 8.33399 | 35048 ft | 478 kts | 157° |
| 2026-05-07 14:46 | 50.19645 | 8.37603 | 35046 ft | 478 kts | 157° |
| 2026-05-07 14:47 | 50.13588 | 8.41782 | 35047 ft | 478 kts | 157° |
| 2026-05-07 14:47 | 50.07504 | 8.45967 | 35047 ft | 478 kts | 157° |
| 2026-05-07 14:48 | 50.01400 | 8.50153 | 35049 ft | 478 kts | 157° |
| 2026-05-07 14:48 | 49.95326 | 8.54307 | 35047 ft | 478 kts | 157° |
| 2026-05-07 14:49 | 49.89242 | 8.58457 | 35045 ft | 478 kts | 157° |
| 2026-05-07 14:49 | 49.83134 | 8.62612 | 35043 ft | 478 kts | 158° |
| 2026-05-07 14:50 | 49.77015 | 8.66593 | 35042 ft | 477 kts | 163° |
| 2026-05-07 14:50 | 49.70500 | 8.68392 | 35042 ft | 474 kts | 180° |
| 2026-05-07 14:51 | 49.63964 | 8.67725 | 35043 ft | 472 kts | 187° |
| 2026-05-07 14:51 | 49.57395 | 8.66811 | 35046 ft | 473 kts | 186° |
| 2026-05-07 14:52 | 49.50873 | 8.65937 | 35046 ft | 473 kts | 186° |
| 2026-05-07 14:52 | 49.44292 | 8.65062 | 35049 ft | 473 kts | 186° |
| 2026-05-07 14:53 | 49.37763 | 8.64195 | 35048 ft | 473 kts | 187° |
| 2026-05-07 14:53 | 49.31190 | 8.63317 | 35044 ft | 472 kts | 187° |
| 2026-05-07 14:54 | 49.24671 | 8.62305 | 35040 ft | 472 kts | 188° |
| 2026-05-07 14:54 | 49.18158 | 8.61272 | 35040 ft | 472 kts | 187° |
| 2026-05-07 14:55 | 49.11592 | 8.60258 | 35043 ft | 472 kts | 187° |
| 2026-05-07 14:55 | 49.05073 | 8.59286 | 34966 ft | 470 kts | 187° |
| 2026-05-07 14:56 | 49.01814 | 8.58801 | 34481 ft | 469 kts | 187° |
| 2026-05-07 14:56 | 48.98557 | 8.58541 | 33542 ft | 474 kts | 181° |
| 2026-05-07 14:56 | 48.95228 | 8.58845 | 32385 ft | 477 kts | 175° |
| 2026-05-07 14:56 | 48.91995 | 8.59871 | 31019 ft | 483 kts | 165° |
| 2026-05-07 14:57 | 48.88882 | 8.61848 | 29514 ft | 483 kts | 153° |
| 2026-05-07 14:57 | 48.86094 | 8.64695 | 28012 ft | 481 kts | 142° |
| 2026-05-07 14:57 | 48.83763 | 8.68289 | 26844 ft | 477 kts | 130° |
| 2026-05-07 14:57 | 48.81944 | 8.72509 | 25702 ft | 472 kts | 118° |
| 2026-05-07 14:58 | 48.80739 | 8.77096 | 24608 ft | 467 kts | 106° |
| 2026-05-07 14:58 | 48.80171 | 8.81851 | 23539 ft | 462 kts | 94° |
| 2026-05-07 14:58 | 48.80294 | 8.86669 | 22745 ft | 448 kts | 80° |
| 2026-05-07 14:58 | 48.81101 | 8.91115 | 22202 ft | 428 kts | 67° |
| 2026-05-07 14:59 | 48.82499 | 8.94993 | 21225 ft | 418 kts | 52° |
| 2026-05-07 14:59 | 48.84390 | 8.98325 | 20244 ft | 415 kts | 46° |
| 2026-05-07 14:59 | 48.86119 | 9.01818 | 19773 ft | 408 kts | 57° |
| 2026-05-07 14:59 | 48.87344 | 9.05573 | 19598 ft | 393 kts | 67° |
| 2026-05-07 15:00 | 48.88203 | 9.09486 | 19135 ft | 386 kts | 73° |
| 2026-05-07 15:00 | 48.88825 | 9.13441 | 18550 ft | 383 kts | 77° |
| 2026-05-07 15:00 | 48.89330 | 9.17379 | 17947 ft | 381 kts | 79° |
| 2026-05-07 15:00 | 48.89796 | 9.21312 | 17368 ft | 376 kts | 79° |
| 2026-05-07 15:01 | 48.90255 | 9.25214 | 16793 ft | 371 kts | 79° |
| 2026-05-07 15:01 | 48.90417 | 9.29100 | 16177 ft | 367 kts | 96° |
| 2026-05-07 15:01 | 48.89775 | 9.32760 | 15619 ft | 361 kts | 115° |
| 2026-05-07 15:01 | 48.88368 | 9.35895 | 15008 ft | 356 kts | 136° |
| 2026-05-07 15:02 | 48.86378 | 9.38064 | 14409 ft | 349 kts | 156° |
| 2026-05-07 15:02 | 48.84226 | 9.39583 | 14092 ft | 338 kts | 150° |
| 2026-05-07 15:02 | 48.82517 | 9.41882 | 13879 ft | 327 kts | 129° |
| 2026-05-07 15:02 | 48.81451 | 9.44911 | 13312 ft | 326 kts | 108° |
| 2026-05-07 15:03 | 48.81183 | 9.48308 | 12715 ft | 324 kts | 85° |
| 2026-05-07 15:03 | 48.81737 | 9.51557 | 12129 ft | 321 kts | 64° |
| 2026-05-07 15:03 | 48.82778 | 9.54548 | 11525 ft | 319 kts | 60° |
| 2026-05-07 15:03 | 48.83789 | 9.57529 | 11062 ft | 314 kts | 64° |
| 2026-05-07 15:04 | 48.84621 | 9.60556 | 10686 ft | 306 kts | 69° |
| 2026-05-07 15:04 | 48.85303 | 9.63599 | 10322 ft | 299 kts | 72° |
| 2026-05-07 15:04 | 48.85893 | 9.66614 | 10071 ft | 304 kts | 73° |
| 2026-05-07 15:04 | 48.86463 | 9.69706 | 9895 ft | 302 kts | 74° |
| 2026-05-07 15:05 | 48.87018 | 9.72789 | 9761 ft | 301 kts | 74° |
| 2026-05-07 15:05 | 48.87558 | 9.75791 | 9667 ft | 293 kts | 74° |
| 2026-05-07 15:05 | 48.88087 | 9.78722 | 9543 ft | 278 kts | 73° |
| 2026-05-07 15:05 | 48.88516 | 9.81515 | 9253 ft | 267 kts | 84° |
| 2026-05-07 15:06 | 48.88291 | 9.84240 | 8811 ft | 261 kts | 112° |
| 2026-05-07 15:06 | 48.87285 | 9.86489 | 8616 ft | 260 kts | 141° |
| 2026-05-07 15:06 | 48.85846 | 9.87745 | 8506 ft | 254 kts | 166° |
| 2026-05-07 15:06 | 48.84143 | 9.88119 | 8215 ft | 246 kts | 189° |
| 2026-05-07 15:07 | 48.82532 | 9.87390 | 7941 ft | 240 kts | 212° |
| 2026-05-07 15:07 | 48.81245 | 9.85834 | 7644 ft | 235 kts | 233° |
| 2026-05-07 15:07 | 48.80436 | 9.83717 | 7370 ft | 232 kts | 252° |
| 2026-05-07 15:07 | 48.80044 | 9.81365 | 7083 ft | 230 kts | 258° |
| 2026-05-07 15:08 | 48.79657 | 9.79011 | 6813 ft | 228 kts | 257° |
| 2026-05-07 15:08 | 48.79257 | 9.76769 | 6636 ft | 218 kts | 256° |
| 2026-05-07 15:08 | 48.78853 | 9.74584 | 6540 ft | 216 kts | 256° |
| 2026-05-07 15:08 | 48.78436 | 9.72381 | 6478 ft | 219 kts | 255° |
| 2026-05-07 15:09 | 48.78020 | 9.70188 | 6326 ft | 212 kts | 255° |
| 2026-05-07 15:09 | 48.77621 | 9.68087 | 6104 ft | 204 kts | 256° |
| 2026-05-07 15:09 | 48.77235 | 9.66033 | 5732 ft | 204 kts | 256° |
| 2026-05-07 15:09 | 48.76847 | 9.63984 | 5505 ft | 198 kts | 256° |
| 2026-05-07 15:10 | 48.76441 | 9.61938 | 5373 ft | 206 kts | 255° |
| 2026-05-07 15:10 | 48.76039 | 9.59868 | 5224 ft | 205 kts | 256° |
| 2026-05-07 15:10 | 48.75656 | 9.57800 | 5056 ft | 204 kts | 256° |
| 2026-05-07 15:10 | 48.75321 | 9.55698 | 4919 ft | 204 kts | 258° |
| 2026-05-07 15:11 | 48.74951 | 9.53689 | 4750 ft | 195 kts | 256° |
| 2026-05-07 15:11 | 48.74583 | 9.51738 | 4581 ft | 187 kts | 256° |
| 2026-05-07 15:11 | 48.74233 | 9.49882 | 4411 ft | 182 kts | 256° |
| 2026-05-07 15:11 | 48.73888 | 9.48071 | 4285 ft | 180 kts | 256° |
| 2026-05-07 15:12 | 48.73541 | 9.46229 | 4158 ft | 180 kts | 256° |
| 2026-05-07 15:12 | 48.73198 | 9.44426 | 3925 ft | 177 kts | 256° |
| 2026-05-07 15:12 | 48.72865 | 9.42657 | 3679 ft | 169 kts | 256° |
| 2026-05-07 15:12 | 48.72544 | 9.40994 | 3457 ft | 160 kts | 257° |
| 2026-05-07 15:13 | 48.72248 | 9.39408 | 3251 ft | 157 kts | 257° |
| 2026-05-07 15:13 | 48.71944 | 9.37793 | 3043 ft | 161 kts | 258° |
| 2026-05-07 15:13 | 48.71643 | 9.36204 | 2824 ft | 150 kts | 257° |
| 2026-05-07 15:13 | 48.71361 | 9.34749 | 2614 ft | 139 kts | 258° |
| 2026-05-07 15:14 | 48.71090 | 9.33280 | 2441 ft | 147 kts | 258° |
| 2026-05-07 15:14 | 48.70817 | 9.31857 | 2234 ft | 140 kts | 258° |
| 2026-05-07 15:14 | 48.70536 | 9.30392 | 2051 ft | 146 kts | 257° |
| 2026-05-07 15:14 | 48.70256 | 9.28916 | 1772 ft | 146 kts | 258° |
| 2026-05-07 15:15 | 48.69985 | 9.27438 | 1593 ft | 148 kts | 257° |
| 2026-05-07 15:15 | 48.69696 | 9.25952 | 1419 ft | 145 kts | 256° |
| 2026-05-07 15:15 | 48.69410 | 9.24481 | 1261 ft | 146 kts | 256° |
| 2026-05-07 15:15 | 48.69161 | 9.23106 | 1229 ft | 113 kts | 255° |
| 2026-05-07 15:16 | 48.68992 | 9.22217 | 1252 ft | 60 kts | 252° |
| 2026-05-07 15:16 | 48.68948 | 9.21747 | 1263 ft | 38 kts | 274° |
| 2026-05-07 15:16 | 48.68975 | 9.21527 | 1264 ft | 10 kts | 282° |
| 2026-05-07 15:16 | 48.68987 | 9.21446 | 1264 ft | 6 kts | 283° |
| 2026-05-07 15:17 | 48.68995 | 9.21392 | 1268 ft | 4 kts | 283° |
| 2026-05-07 15:17 | 48.68997 | 9.21352 | 1268 ft | 3 kts | 272° |
| 2026-05-07 15:17 | 48.68990 | 9.21287 | 1271 ft | 12 kts | 256° |
| 2026-05-07 15:17 | 48.68961 | 9.21138 | 1272 ft | 16 kts | 254° |
| 2026-05-07 15:18 | 48.68933 | 9.20989 | 1271 ft | 13 kts | 255° |
| 2026-05-07 15:18 | 48.68911 | 9.20869 | 1274 ft | 11 kts | 254° |
| 2026-05-07 15:18 | 48.68897 | 9.20790 | 1277 ft | 4 kts | 255° |
| 2026-05-07 15:18 | 48.68887 | 9.20736 | 1277 ft | 7 kts | 255° |
| 2026-05-07 15:19 | 48.68871 | 9.20658 | 1278 ft | 10 kts | 251° |
| 2026-05-07 15:19 | 48.68849 | 9.20548 | 1280 ft | 11 kts | 254° |
| 2026-05-07 15:19 | 48.68829 | 9.20438 | 1284 ft | 11 kts | 254° |
| 2026-05-07 15:19 | 48.68806 | 9.20313 | 1287 ft | 12 kts | 254° |
| 2026-05-07 15:20 | 48.68786 | 9.20211 | 1289 ft | 9 kts | 254° |
| 2026-05-07 15:20 | 48.68771 | 9.20130 | 1291 ft | 8 kts | 254° |
| 2026-05-07 15:20 | 48.68756 | 9.20045 | 1291 ft | 9 kts | 262° |
| 2026-05-07 15:20 | 48.68785 | 9.19963 | 1291 ft | 9 kts | 310° |
| 2026-05-07 15:21 | 48.68827 | 9.19893 | 1293 ft | 8 kts | 312° |
| 2026-05-07 15:21 | 48.68858 | 9.19847 | 1296 ft | 4 kts | 317° |
| 2026-05-07 15:21 | 48.68870 | 9.19836 | 1297 ft | 1 kts | 330° |
| 2026-05-07 15:21 | 48.68908 | 9.19861 | 1299 ft | 11 kts | 36° |
| 2026-05-07 15:22 | 48.68956 | 9.19967 | 1299 ft | 13 kts | 55° |
| 2026-05-07 15:22 | 48.68993 | 9.20008 | 1299 ft | 1 kts | 8° |
| 2026-05-07 15:22 | 48.69030 | 9.19987 | 1303 ft | 7 kts | 344° |
| 2026-05-07 15:22 | 48.69063 | 9.19972 | 1304 ft | 4 kts | 344° |
| 2026-05-07 15:23 | 48.69064 | 9.19972 | 1304 ft | 0 kts | 344° |